createdAt,value
2023-04-04T00:01:06.181Z,2.71
2023-04-04T00:02:28.794Z,2.60
2023-04-04T00:03:51.081Z,3.46
2023-04-04T00:05:13.023Z,2.89
2023-04-04T00:06:35.072Z,3.38
2023-04-04T00:07:57.072Z,4.16
2023-04-04T00:09:19.841Z,3.46
2023-04-04T00:10:41.630Z,3.57
2023-04-04T00:12:05.649Z,4.58
2023-04-04T00:13:27.078Z,3.56
2023-04-04T00:14:48.899Z,5.94
2023-04-04T00:16:11.246Z,3.49
2023-04-04T00:17:33.032Z,3.94
2023-04-04T00:18:56.406Z,4.84
2023-04-04T00:21:39.325Z,4.28
2023-04-04T00:23:01.106Z,3.18
2023-04-04T00:24:23.341Z,3.41
2023-04-04T00:25:50.301Z,2.46
2023-04-04T00:27:12.616Z,2.86
2023-04-04T00:28:34.212Z,2.99
2023-04-04T00:29:56.222Z,3.10
2023-04-04T00:31:18.370Z,2.59
2023-04-04T00:32:39.827Z,2.70
2023-04-04T00:34:02.160Z,2.78
2023-04-04T00:35:24.782Z,3.34
2023-04-04T00:36:47.009Z,3.03
2023-04-04T00:38:08.565Z,2.86
2023-04-04T00:39:30.350Z,3.52
2023-04-04T00:40:52.370Z,3.22
2023-04-04T00:43:27.391Z,3.08
2023-04-04T00:44:51.291Z,3.51
2023-04-04T00:46:14.181Z,4.25
2023-04-04T00:47:38.718Z,2.98
2023-04-04T00:49:00.632Z,4.07
2023-04-04T00:50:22.592Z,3.39
2023-04-04T00:51:44.768Z,2.83
2023-04-04T00:53:06.968Z,4.66
2023-04-04T00:55:43.877Z,4.18
2023-04-04T00:57:06.003Z,2.76
2023-04-04T00:58:28.037Z,4.67
2023-04-04T00:59:50.489Z,4.00
2023-04-04T01:01:12.041Z,5.09
2023-04-04T01:02:34.328Z,3.18
2023-04-04T01:03:56.531Z,5.12
2023-04-04T01:05:18.138Z,4.53
2023-04-04T01:06:40.415Z,5.64
2023-04-04T01:08:02.417Z,3.54
2023-04-04T01:09:24.635Z,2.44
2023-04-04T01:11:56.414Z,3.29
2023-04-04T01:13:18.900Z,3.31
2023-04-04T01:14:41.300Z,2.73
2023-04-04T01:16:04.306Z,3.61
2023-04-04T01:18:36.474Z,3.68
2023-04-04T01:20:14.146Z,3.31
2023-04-04T01:21:35.502Z,4.04
2023-04-04T01:24:16.009Z,2.77
2023-04-04T01:25:38.218Z,4.30
2023-04-04T01:27:00.544Z,3.86
2023-04-04T01:28:22.539Z,4.59
2023-04-04T01:29:44.561Z,4.29
2023-04-04T01:31:07.118Z,4.57
2023-04-04T01:32:41.857Z,4.03
2023-04-04T01:35:32.521Z,4.48
2023-04-04T01:38:33.644Z,4.89
2023-04-04T01:39:58.881Z,4.61
2023-04-04T01:41:20.393Z,4.89
2023-04-04T01:42:42.187Z,5.83
2023-04-04T01:44:04.230Z,4.89
2023-04-04T01:45:25.707Z,6.31
2023-04-04T01:46:47.880Z,4.72
2023-04-04T01:48:09.326Z,4.28
2023-04-04T01:49:31.403Z,3.78
2023-04-04T01:50:53.688Z,3.02
2023-04-04T01:52:15.254Z,3.77
2023-04-04T01:53:36.345Z,4.33
2023-04-04T01:56:21.646Z,3.86
2023-04-04T01:57:43.680Z,3.72
2023-04-04T01:59:05.786Z,5.96
2023-04-04T02:00:28.325Z,3.48
2023-04-04T02:01:50.004Z,3.82
2023-04-04T02:04:23.411Z,4.79
2023-04-04T02:05:46.062Z,6.16
2023-04-04T02:07:07.177Z,4.02
2023-04-04T02:08:29.134Z,4.64
2023-04-04T02:09:51.611Z,3.67
2023-04-04T02:11:14.044Z,4.08
2023-04-04T02:12:35.448Z,4.13
2023-04-04T02:13:56.931Z,5.26
2023-04-04T02:15:17.920Z,4.28
2023-04-04T02:16:40.838Z,4.22
2023-04-04T02:18:04.138Z,3.78
2023-04-04T02:20:40.636Z,4.56
2023-04-04T02:23:16.459Z,3.95
2023-04-04T02:24:39.866Z,4.82
2023-04-04T02:27:23.248Z,5.93
2023-04-04T02:28:44.679Z,4.50
2023-04-04T02:30:07.995Z,3.78
2023-04-04T02:31:30.254Z,6.38
2023-04-04T02:32:52.618Z,3.99
2023-04-04T02:34:14.099Z,5.57
2023-04-04T02:35:36.448Z,5.72
2023-04-04T02:36:58.458Z,4.74
2023-04-04T02:38:20.519Z,6.61
2023-04-04T02:39:42.762Z,5.67
2023-04-04T02:41:04.245Z,4.37
2023-04-04T02:42:25.812Z,3.77
2023-04-04T02:43:48.224Z,4.80
2023-04-04T02:45:10.540Z,3.58
2023-04-04T02:46:33.795Z,3.96
2023-04-04T02:47:55.726Z,3.40
2023-04-04T02:49:18.216Z,3.50
2023-04-04T02:50:40.335Z,3.32
2023-04-04T02:52:02.271Z,3.36
2023-04-04T02:53:24.261Z,2.81
2023-04-04T02:54:46.063Z,3.40
2023-04-04T02:56:08.353Z,3.39
2023-04-04T02:58:42.777Z,3.68
2023-04-04T03:00:05.308Z,3.35
2023-04-04T03:01:29.388Z,4.08
2023-04-04T03:02:55.215Z,4.12
2023-04-04T03:04:16.564Z,3.98
2023-04-04T03:05:38.373Z,5.17
2023-04-04T03:07:00.032Z,4.41
2023-04-04T03:08:21.474Z,3.99
2023-04-04T03:09:43.100Z,3.05
2023-04-04T03:12:14.880Z,3.44
2023-04-04T03:14:48.041Z,3.49
2023-04-04T03:16:10.365Z,3.07
2023-04-04T03:17:31.980Z,3.35
2023-04-04T03:20:05.735Z,3.82
2023-04-04T03:21:27.479Z,3.18
2023-04-04T03:22:49.387Z,3.15
2023-04-04T03:24:10.829Z,3.32
2023-04-04T03:25:32.706Z,4.38
2023-04-04T03:26:54.769Z,3.74
2023-04-04T03:28:17.267Z,2.88
2023-04-04T03:29:40.386Z,3.03
2023-04-04T03:31:06.007Z,3.24
2023-04-04T03:33:58.224Z,3.31
2023-04-04T03:36:37.671Z,5.12
2023-04-04T03:38:02.524Z,4.34
2023-04-04T03:39:29.643Z,4.02
2023-04-04T03:41:01.845Z,5.09
2023-04-04T03:42:23.491Z,3.33
2023-04-04T03:43:45.501Z,3.57
2023-04-04T03:45:08.703Z,3.49
2023-04-04T03:46:30.504Z,4.00
2023-04-04T03:47:52.511Z,4.38
2023-04-04T03:49:14.924Z,4.71
2023-04-04T03:50:36.453Z,5.02
2023-04-04T03:51:58.211Z,5.43
2023-04-04T03:53:19.964Z,7.54
2023-04-04T03:54:42.340Z,5.25
2023-04-04T03:56:05.198Z,5.12
2023-04-04T03:57:27.456Z,5.51
2023-04-04T03:58:49.476Z,5.46
2023-04-04T04:00:13.563Z,6.64
2023-04-04T04:01:35.439Z,5.73
2023-04-04T04:02:58.030Z,4.54
2023-04-04T04:04:19.931Z,5.37
2023-04-04T04:05:41.950Z,6.08
2023-04-04T04:07:04.671Z,5.02
2023-04-04T04:08:27.200Z,4.02
2023-04-04T04:09:48.634Z,3.81
2023-04-04T04:11:11.161Z,5.56
2023-04-04T04:12:33.250Z,4.24
2023-04-04T04:13:55.489Z,4.19
2023-04-04T04:15:17.572Z,5.10
2023-04-04T04:16:40.154Z,4.21
2023-04-04T04:18:05.390Z,4.26
2023-04-04T04:19:26.877Z,6.13
2023-04-04T04:20:49.478Z,5.16
2023-04-04T04:22:10.611Z,6.38
2023-04-04T04:23:32.672Z,5.53
2023-04-04T04:24:55.988Z,9.61
2023-04-04T04:27:40.061Z,4.12
2023-04-04T04:29:02.204Z,5.12
2023-04-04T04:30:23.274Z,6.65
2023-04-04T04:44:44.571Z,4.04
2023-04-04T04:46:06.963Z,4.96
2023-04-04T04:47:30.394Z,3.93
2023-04-04T04:48:53.663Z,3.97
2023-04-04T04:50:16.216Z,5.39
2023-04-04T04:51:38.482Z,5.38
2023-04-04T04:53:00.385Z,11.43
2023-04-04T04:54:22.741Z,7.02
2023-04-04T04:55:45.930Z,4.68
2023-04-04T04:57:08.225Z,4.74
2023-04-04T04:59:57.448Z,4.74
2023-04-04T05:02:46.532Z,4.12
2023-04-04T05:05:28.323Z,5.03
2023-04-04T05:06:50.478Z,8.51
2023-04-04T05:08:12.964Z,9.56
2023-04-04T05:09:35.159Z,3.93
2023-04-04T05:10:56.514Z,5.87
2023-04-04T05:12:19.909Z,4.68
2023-04-04T05:13:41.325Z,4.26
2023-04-04T05:15:05.857Z,5.56
2023-04-04T05:16:28.998Z,5.81
2023-04-04T05:17:50.856Z,6.23
2023-04-04T05:19:13.246Z,6.86
2023-04-04T05:20:35.847Z,6.41
2023-04-04T05:21:57.762Z,4.40
2023-04-04T05:23:19.158Z,5.03
2023-04-04T05:25:51.463Z,5.14
2023-04-04T05:27:13.423Z,3.55
2023-04-04T05:28:34.916Z,4.38
2023-04-04T05:29:59.578Z,5.23
2023-04-04T05:31:21.621Z,5.82
2023-04-04T05:32:45.388Z,7.30
2023-04-04T05:34:08.355Z,8.32
2023-04-04T05:52:57.417Z,4.42
2023-04-04T05:55:33.061Z,5.77
2023-04-04T05:56:56.798Z,7.46
2023-04-04T05:58:19.712Z,7.82
2023-04-04T05:59:41.688Z,8.08
2023-04-04T06:01:12.928Z,5.86
2023-04-04T06:02:35.162Z,4.78
2023-04-04T06:03:59.792Z,4.96
2023-04-04T06:05:21.699Z,5.79
2023-04-04T06:06:44.083Z,4.29
2023-04-04T06:08:05.465Z,7.07
2023-04-04T06:09:27.438Z,6.02
2023-04-04T06:10:49.225Z,6.04
2023-04-04T06:12:11.147Z,7.08
2023-04-04T06:13:33.666Z,4.54
2023-04-04T06:14:56.201Z,6.41
2023-04-04T06:16:18.977Z,6.32
2023-04-04T06:17:41.760Z,5.17
2023-04-04T06:19:03.426Z,5.87
2023-04-04T06:20:25.875Z,6.06
2023-04-04T06:23:42.309Z,6.52
2023-04-04T06:25:06.452Z,7.27
2023-04-04T06:26:29.945Z,11.14
2023-04-04T06:27:52.158Z,7.94
2023-04-04T06:29:15.859Z,12.32
2023-04-04T06:30:42.730Z,6.85
2023-04-04T06:32:05.594Z,7.29
2023-04-04T06:33:26.812Z,5.81
2023-04-04T06:34:49.079Z,5.91
2023-04-04T06:36:12.837Z,3.58
2023-04-04T06:37:34.696Z,4.55
2023-04-04T06:38:56.494Z,8.41
2023-04-04T06:40:18.873Z,6.99
2023-04-04T06:41:43.123Z,7.75
2023-04-04T06:43:05.927Z,5.74
2023-04-04T06:44:28.862Z,7.19
2023-04-04T06:45:53.179Z,8.98
2023-04-04T06:47:15.576Z,7.84
2023-04-04T06:48:37.421Z,6.62
2023-04-04T06:49:59.286Z,8.19
2023-04-04T06:51:21.957Z,8.83
2023-04-04T06:52:45.226Z,7.97
2023-04-04T06:55:29.385Z,5.91
2023-04-04T06:56:51.796Z,6.92
2023-04-04T06:58:22.377Z,6.09
2023-04-04T06:59:54.309Z,7.46
2023-04-04T07:01:16.239Z,9.23
2023-04-04T07:02:40.383Z,11.39
2023-04-04T07:04:03.040Z,7.87
2023-04-04T07:05:24.680Z,9.58
2023-04-04T07:06:47.022Z,7.39
2023-04-04T07:08:11.325Z,9.09
2023-04-04T07:09:34.656Z,6.91
2023-04-04T07:10:56.830Z,5.31
2023-04-04T07:12:20.422Z,5.64
2023-04-04T07:13:46.125Z,7.18
2023-04-04T07:15:11.784Z,4.97
2023-04-04T07:16:34.384Z,4.65
2023-04-04T07:17:58.795Z,6.38
2023-04-04T07:19:21.763Z,8.99
2023-04-04T07:20:50.075Z,10.56
2023-04-04T07:22:12.599Z,11.26
2023-04-04T07:23:35.005Z,9.87
2023-04-04T07:25:01.836Z,8.63
2023-04-04T07:26:23.676Z,5.69
2023-04-04T07:27:45.788Z,5.00
2023-04-04T07:29:08.447Z,8.29
2023-04-04T07:30:30.423Z,4.87
2023-04-04T07:31:52.540Z,8.22
2023-04-04T07:33:21.829Z,9.48
2023-04-04T07:34:55.866Z,7.48
2023-04-04T07:36:17.549Z,10.47
2023-04-04T07:37:39.557Z,10.09
2023-04-04T07:39:04.585Z,7.05
2023-04-04T07:40:28.247Z,10.44
2023-04-04T07:41:50.547Z,6.57
2023-04-04T07:43:13.531Z,9.13
2023-04-04T07:44:39.429Z,9.14
2023-04-04T07:46:02.491Z,6.17
2023-04-04T07:47:25.240Z,13.68
2023-04-04T07:48:49.234Z,6.69
2023-04-04T07:50:20.078Z,5.43
2023-04-04T07:51:46.319Z,7.17
2023-04-04T07:53:15.499Z,6.54
2023-04-04T07:54:38.594Z,8.17
2023-04-04T07:56:00.317Z,10.33
2023-04-04T07:57:22.934Z,6.77
2023-04-04T07:58:46.582Z,6.82
2023-04-04T08:00:16.222Z,5.60
2023-04-04T08:03:08.719Z,6.98
2023-04-04T08:04:31.877Z,9.03
2023-04-04T08:06:02.075Z,7.76
2023-04-04T08:07:30.280Z,6.85
2023-04-04T08:08:54.032Z,6.94
2023-04-04T08:10:16.163Z,12.50
2023-04-04T08:11:37.984Z,7.21
2023-04-04T08:13:01.722Z,6.28
2023-04-04T08:14:23.382Z,6.36
2023-04-04T08:15:49.108Z,5.37
2023-04-04T08:17:11.315Z,9.19
2023-04-04T08:18:36.880Z,7.19
2023-04-04T08:20:02.142Z,5.68
2023-04-04T08:21:24.233Z,5.64
2023-04-04T08:22:48.088Z,6.96
2023-04-04T08:24:10.234Z,5.46
2023-04-04T08:25:32.796Z,6.19
2023-04-04T08:27:04.553Z,8.58
2023-04-04T08:28:20.888Z,11.50
2023-04-04T08:29:49.148Z,5.34
2023-04-04T08:31:13.357Z,6.96
2023-04-04T08:32:36.873Z,8.14
2023-04-04T08:35:52.142Z,14.57
2023-04-04T08:37:14.097Z,4.52
2023-04-04T08:38:39.341Z,4.42
2023-04-04T08:40:07.794Z,6.44
2023-04-04T08:41:30.636Z,4.87
2023-04-04T08:55:13.123Z,6.27
2023-04-04T08:57:58.408Z,6.20
2023-04-04T08:59:21.624Z,6.65
2023-04-04T09:00:44.287Z,4.36
2023-04-04T09:02:15.256Z,5.38
2023-04-04T09:03:37.627Z,5.30
2023-04-04T09:05:06.826Z,5.21
2023-04-04T09:06:28.824Z,8.57
2023-04-04T09:10:56.973Z,6.47
2023-04-04T09:12:28.380Z,5.73
2023-04-04T09:13:53.191Z,8.17
2023-04-04T09:15:19.244Z,6.55
2023-04-04T09:16:49.497Z,5.29
2023-04-04T09:18:13.069Z,5.50
2023-04-04T09:19:37.545Z,8.71
2023-04-04T09:21:01.777Z,8.24
2023-04-04T09:22:23.764Z,7.27
2023-04-04T09:24:02.392Z,5.57
2023-04-04T09:25:31.304Z,4.58
2023-04-04T09:26:55.381Z,5.73
2023-04-04T09:28:18.477Z,7.48
2023-04-04T09:29:40.895Z,7.93
2023-04-04T09:31:04.471Z,8.51
2023-04-04T09:32:30.578Z,6.04
2023-04-04T09:33:55.386Z,3.59
2023-04-04T10:28:14.993Z,5.56
2023-04-04T10:55:30.301Z,6.89
2023-04-04T11:08:46.752Z,3.58
2023-04-04T11:12:39.781Z,2.80
2023-04-04T11:14:03.822Z,6.30
2023-04-04T11:15:42.402Z,4.41
2023-04-04T11:18:55.021Z,6.96
2023-04-04T11:20:36.723Z,13.14
2023-04-04T11:22:07.678Z,5.73
2023-04-04T11:24:00.047Z,5.04
2023-04-04T11:25:38.192Z,6.61
2023-04-04T11:27:00.696Z,10.66
2023-04-04T11:28:30.216Z,10.66
2023-04-04T11:29:54.793Z,8.22
2023-04-04T12:31:13.041Z,7.36
2023-04-04T13:28:09.981Z,5.41
2023-04-04T13:29:32.666Z,9.26
2023-04-04T14:04:13.231Z,6.53
2023-04-04T14:21:55.280Z,7.29
2023-04-04T14:39:41.516Z,5.77
2023-04-04T14:55:17.221Z,4.58
2023-04-04T14:56:42.652Z,5.56
2023-04-04T14:58:06.609Z,5.72
2023-04-04T14:59:33.759Z,4.83
2023-04-04T15:00:58.618Z,8.99
2023-04-04T15:02:21.181Z,6.08
2023-04-04T15:03:46.546Z,6.16
2023-04-04T15:05:08.938Z,6.48
2023-04-04T15:39:23.058Z,4.29
2023-04-04T15:53:20.242Z,6.41
2023-04-04T15:56:05.510Z,8.66
2023-04-04T15:57:28.390Z,6.26
2023-04-04T15:58:50.488Z,6.91
2023-04-04T16:00:16.472Z,5.46
2023-04-04T16:01:39.919Z,7.81
2023-04-04T16:03:01.909Z,6.56
2023-04-04T16:04:25.169Z,7.04
2023-04-04T16:05:49.507Z,6.34
2023-04-04T16:07:14.055Z,7.44
2023-04-04T16:08:40.707Z,7.28
2023-04-04T16:10:03.455Z,8.43
2023-04-04T16:11:25.740Z,8.11
2023-04-04T16:12:48.127Z,7.22
2023-04-04T16:14:11.121Z,7.53
2023-04-04T16:15:36.565Z,6.83
2023-04-04T16:16:58.432Z,8.49
2023-04-04T16:18:21.334Z,9.84
2023-04-04T16:19:44.961Z,7.61
2023-04-04T16:21:08.928Z,7.16
2023-04-04T16:22:32.753Z,8.37
2023-04-04T16:23:54.804Z,10.24
2023-04-04T16:25:17.264Z,11.04
2023-04-04T16:26:38.824Z,9.99
2023-04-04T16:28:00.516Z,9.75
2023-04-04T16:29:22.489Z,11.61
2023-04-04T16:30:44.207Z,12.42
2023-04-04T16:32:05.649Z,11.49
2023-04-04T16:33:27.993Z,10.34
2023-04-04T16:34:49.612Z,12.28
2023-04-04T16:36:13.050Z,9.22
2023-04-04T16:37:37.374Z,12.68
2023-04-04T16:38:59.226Z,11.37
2023-04-04T16:40:21.316Z,10.76
2023-04-04T16:41:44.192Z,10.24
2023-04-04T16:43:05.892Z,7.65
2023-04-04T16:44:28.872Z,8.88
2023-04-04T16:45:53.493Z,7.73
2023-04-04T16:47:15.482Z,9.87
2023-04-04T16:48:37.958Z,9.92
2023-04-04T16:50:04.346Z,8.51
2023-04-04T16:51:27.113Z,10.14
2023-04-04T16:52:49.714Z,9.59
2023-04-04T16:55:38.002Z,8.66
2023-04-04T16:56:59.628Z,8.93
2023-04-04T16:58:22.400Z,9.72
2023-04-04T16:59:47.563Z,15.84
2023-04-04T17:01:11.424Z,8.39
2023-04-04T17:02:45.946Z,8.16
2023-04-04T17:05:36.085Z,7.49
2023-04-04T17:07:02.259Z,7.81
2023-04-04T17:08:23.950Z,6.67
2023-04-04T17:09:48.224Z,6.88
2023-04-04T17:11:10.200Z,7.32
2023-04-04T17:12:32.813Z,8.48
2023-04-04T17:13:55.591Z,10.22
2023-04-04T17:15:20.664Z,9.53
2023-04-04T17:16:42.662Z,8.88
2023-04-04T17:18:16.771Z,7.97
2023-04-04T17:19:38.730Z,8.17
2023-04-04T17:21:00.291Z,8.70
2023-04-04T17:22:26.103Z,8.33
2023-04-04T17:23:48.290Z,8.97
2023-04-04T17:25:14.002Z,7.78
2023-04-04T17:26:36.996Z,8.57
2023-04-04T17:27:59.369Z,7.99
2023-04-04T17:29:31.444Z,7.78
2023-04-04T17:31:01.685Z,12.43
2023-04-04T17:32:24.893Z,10.91
2023-04-04T17:35:14.242Z,10.70
2023-04-04T17:36:38.193Z,9.29
2023-04-04T17:38:00.180Z,12.31
2023-04-04T17:39:22.706Z,13.62
2023-04-04T17:40:44.141Z,9.86
2023-04-04T17:42:07.872Z,15.43
2023-04-04T17:43:31.549Z,9.61
2023-04-04T17:44:53.952Z,11.36
2023-04-04T17:46:27.738Z,10.14
2023-04-04T17:47:56.609Z,9.94
2023-04-04T17:49:18.496Z,5.98
2023-04-04T17:50:40.133Z,8.06
2023-04-04T17:52:07.941Z,8.40
2023-04-04T17:53:30.848Z,5.29
2023-04-04T17:55:00.342Z,6.77
2023-04-04T17:56:33.639Z,6.09
2023-04-04T17:57:55.947Z,7.12
2023-04-04T17:59:17.787Z,5.82
2023-04-04T18:00:41.128Z,5.03
2023-04-04T18:02:03.104Z,5.45
2023-04-04T18:03:26.192Z,5.88
2023-04-04T18:04:48.432Z,5.41
2023-04-04T18:06:10.194Z,3.92
2023-04-04T18:07:31.903Z,5.81
2023-04-04T18:08:56.282Z,7.11
2023-04-04T18:10:20.083Z,6.13
2023-04-04T18:11:41.553Z,6.53
2023-04-04T18:13:03.833Z,6.14
2023-04-04T18:14:26.040Z,5.81
2023-04-04T18:15:49.495Z,5.51
2023-04-04T18:17:10.952Z,6.16
2023-04-04T18:18:32.229Z,7.74
2023-04-04T18:19:54.560Z,8.61
2023-04-04T18:21:16.485Z,7.97
2023-04-04T18:22:38.514Z,8.57
2023-04-04T18:24:01.724Z,9.41
2023-04-04T18:25:24.224Z,10.19
2023-04-04T18:26:46.578Z,8.30
2023-04-04T18:28:08.795Z,9.65
2023-04-04T18:29:30.701Z,9.93
2023-04-04T18:30:53.621Z,9.17
2023-04-04T18:32:17.846Z,9.11
2023-04-04T18:33:40.243Z,8.74
2023-04-04T18:35:01.475Z,7.20
2023-04-04T18:36:24.900Z,9.22
2023-04-04T18:37:46.691Z,9.18
2023-04-04T18:39:10.574Z,9.24
2023-04-04T18:40:32.980Z,7.97
2023-04-04T18:41:55.020Z,9.34
2023-04-04T18:43:17.485Z,11.13
2023-04-04T18:44:42.349Z,13.58
2023-04-04T18:46:05.174Z,9.42
2023-04-04T18:47:31.122Z,11.28
2023-04-04T18:48:53.651Z,8.86
2023-04-04T18:50:17.455Z,10.08
2023-04-04T18:51:40.535Z,9.17
2023-04-04T18:54:25.075Z,9.82
2023-04-04T18:57:13.052Z,14.47
2023-04-04T18:58:36.003Z,11.73
2023-04-04T19:01:19.478Z,8.24
2023-04-04T19:02:41.709Z,7.08
2023-04-04T19:04:03.657Z,6.76
2023-04-04T19:05:27.067Z,5.72
2023-04-04T19:06:51.192Z,6.09
2023-04-04T19:08:15.710Z,7.14
2023-04-04T19:09:37.631Z,4.38
2023-04-04T19:10:59.492Z,6.46
2023-04-04T19:12:20.601Z,5.16
2023-04-04T19:13:42.657Z,4.64
2023-04-04T19:15:06.529Z,4.92
2023-04-04T19:16:27.682Z,3.80
2023-04-04T19:17:49.281Z,4.47
2023-04-04T19:19:12.383Z,3.78
2023-04-04T19:20:35.051Z,5.37
2023-04-04T19:21:58.715Z,4.89
2023-04-04T19:23:20.928Z,4.70
2023-04-04T19:24:43.054Z,5.16
2023-04-04T19:26:06.695Z,4.62
2023-04-04T19:27:29.032Z,7.62
2023-04-04T19:28:52.927Z,6.49
2023-04-04T19:30:46.195Z,5.26
2023-04-04T19:32:13.104Z,5.08
2023-04-04T19:33:36.715Z,4.98
2023-04-04T19:35:01.230Z,5.84
2023-04-04T19:36:24.022Z,6.82
2023-04-04T19:37:46.155Z,7.42
2023-04-04T19:39:08.919Z,5.57
2023-04-04T19:40:47.689Z,6.32
2023-04-04T19:42:09.606Z,6.22
2023-04-04T19:43:33.131Z,5.42
2023-04-04T19:44:55.511Z,4.62
2023-04-04T19:46:27.802Z,6.86
2023-04-04T19:47:49.947Z,6.98
2023-04-04T19:49:12.466Z,4.48
2023-04-04T19:50:36.907Z,5.57
2023-04-04T19:52:00.581Z,8.39
2023-04-04T19:53:23.290Z,6.74
2023-04-04T19:54:45.828Z,4.16
2023-04-04T19:56:09.391Z,6.27
2023-04-04T19:57:31.411Z,7.34
2023-04-04T19:59:01.148Z,6.33
2023-04-04T20:00:23.759Z,5.30
2023-04-04T20:01:57.792Z,4.41
2023-04-04T20:17:40.082Z,6.66
2023-04-04T20:19:04.514Z,5.25
2023-04-04T20:20:46.728Z,5.02
2023-04-04T20:22:09.364Z,4.49
2023-04-04T20:23:33.063Z,4.51
2023-04-04T20:24:54.754Z,4.24
2023-04-04T20:26:53.011Z,6.51
2023-04-04T20:28:26.455Z,3.91
2023-04-04T20:31:13.650Z,3.79
2023-04-04T20:32:35.219Z,3.48
2023-04-04T20:33:58.907Z,3.34
2023-04-04T20:35:28.375Z,2.99
2023-04-04T20:36:50.027Z,4.69
2023-04-04T20:38:14.045Z,3.31
2023-04-04T20:39:41.451Z,2.65
2023-04-04T20:41:07.812Z,3.07
2023-04-04T20:42:37.694Z,2.99
2023-04-04T20:43:59.779Z,4.28
2023-04-04T20:45:42.891Z,4.13
2023-04-04T20:47:07.511Z,3.25
2023-04-04T20:48:38.064Z,3.43
2023-04-04T20:50:01.898Z,4.99
2023-04-04T20:52:48.202Z,2.87
2023-04-04T20:54:11.477Z,3.23
2023-04-04T20:55:34.728Z,3.12
2023-04-04T20:59:41.851Z,4.19
2023-04-04T21:01:04.560Z,3.82
2023-04-04T21:02:26.308Z,3.24
2023-04-04T21:03:48.327Z,3.61
2023-04-04T21:05:13.923Z,5.71
2023-04-04T21:06:35.595Z,3.80
2023-04-04T21:07:59.740Z,3.21
2023-04-04T21:09:21.275Z,4.39
2023-04-04T21:10:49.739Z,4.64
2023-04-04T21:12:12.881Z,5.14
2023-04-04T21:27:06.067Z,3.38
2023-04-04T21:28:37.188Z,3.67
2023-04-04T21:29:58.724Z,3.58
2023-04-04T21:32:34.930Z,3.39
2023-04-04T21:33:57.397Z,3.70
2023-04-04T21:35:22.525Z,3.89
2023-04-04T21:36:44.740Z,6.13
2023-04-04T21:38:07.104Z,4.56
2023-04-04T21:39:29.869Z,5.42
2023-04-04T21:40:51.882Z,3.67
2023-04-04T21:43:29.508Z,3.57
2023-04-04T21:44:51.685Z,3.19
2023-04-04T21:46:13.457Z,3.48
2023-04-04T21:47:35.606Z,3.67
2023-04-04T21:48:56.885Z,4.25
2023-04-04T21:50:19.933Z,4.19
2023-04-04T21:51:41.974Z,4.09
2023-04-04T21:53:04.440Z,3.82
2023-04-04T21:54:27.762Z,5.60
2023-04-04T21:55:51.099Z,4.60
2023-04-04T21:57:14.588Z,3.83
2023-04-04T21:58:36.691Z,3.89
2023-04-04T21:59:58.175Z,3.75
2023-04-04T22:01:20.555Z,4.05
2023-04-04T22:02:42.134Z,3.88
2023-04-04T22:04:03.610Z,5.97
2023-04-04T22:05:38.144Z,4.89
2023-04-04T22:06:50.077Z,4.17
2023-04-04T22:08:11.439Z,4.01
2023-04-04T22:09:33.086Z,4.47
2023-04-04T22:10:54.191Z,4.29
2023-04-04T22:12:15.693Z,5.64
2023-04-04T22:13:37.102Z,5.13
2023-04-04T22:15:00.511Z,3.93
2023-04-04T22:16:25.216Z,4.01
2023-04-04T22:17:47.659Z,6.20
2023-04-04T22:19:09.488Z,4.79
2023-04-04T22:20:33.702Z,5.40
2023-04-04T22:21:55.323Z,5.55
2023-04-04T22:23:17.360Z,4.48
2023-04-04T22:24:38.972Z,4.67
2023-04-04T22:26:08.478Z,4.66
2023-04-04T22:27:34.362Z,4.54
2023-04-04T22:28:56.604Z,3.78
2023-04-04T22:30:17.756Z,4.47
2023-04-04T22:31:39.385Z,3.72
2023-04-04T22:33:01.967Z,3.74
2023-04-04T22:34:25.319Z,4.17
2023-04-04T22:37:08.329Z,4.37
2023-04-04T22:38:30.380Z,4.28
2023-04-04T22:39:51.511Z,3.63
2023-04-04T22:41:13.174Z,4.28
2023-04-04T22:42:35.696Z,4.98
2023-04-04T22:43:59.197Z,4.74
2023-04-04T22:46:42.751Z,4.88
2023-04-04T22:48:05.463Z,5.30
2023-04-04T22:49:27.355Z,4.63
2023-04-04T22:52:04.418Z,4.39
2023-04-04T22:53:26.353Z,4.16
2023-04-04T22:54:49.807Z,4.56
2023-04-04T22:56:11.839Z,4.61
2023-04-04T22:57:34.380Z,4.59
2023-04-04T22:58:55.945Z,5.31
2023-04-04T23:00:18.029Z,5.99
2023-04-04T23:01:40.402Z,4.27
2023-04-04T23:03:02.551Z,4.64
2023-04-04T23:04:25.739Z,4.16
2023-04-04T23:07:09.384Z,3.82
2023-04-04T23:08:31.589Z,3.99
2023-04-04T23:09:55.288Z,4.67
2023-04-04T23:12:38.890Z,5.39
2023-04-04T23:14:02.692Z,5.58
2023-04-04T23:16:45.860Z,5.15
2023-04-04T23:18:08.331Z,4.59
2023-04-04T23:19:29.950Z,5.11
2023-04-04T23:20:51.963Z,5.02
2023-04-04T23:22:13.565Z,5.16
2023-04-04T23:23:35.864Z,9.32
2023-04-04T23:24:57.914Z,4.47
2023-04-04T23:26:20.352Z,3.53
2023-04-04T23:27:41.607Z,4.29
2023-04-04T23:29:04.006Z,5.11
2023-04-04T23:30:25.402Z,3.90
2023-04-04T23:31:47.856Z,3.39
2023-04-04T23:33:09.531Z,4.27
2023-04-04T23:34:32.847Z,5.46
2023-04-04T23:35:54.963Z,4.71
2023-04-04T23:37:18.368Z,3.96
2023-04-04T23:40:05.087Z,4.79
2023-04-04T23:41:27.121Z,4.77
2023-04-04T23:42:49.094Z,4.59
2023-04-04T23:44:11.761Z,4.76
2023-04-04T23:45:35.352Z,2.90
2023-04-04T23:46:57.682Z,5.41
2023-04-04T23:48:19.312Z,5.05
2023-04-04T23:49:41.402Z,4.98
2023-04-04T23:51:03.923Z,4.52
2023-04-04T23:52:25.846Z,5.16
2023-04-04T23:53:48.396Z,7.34
2023-04-04T23:55:09.992Z,7.35
2023-04-04T23:56:32.422Z,6.15
2023-04-04T23:59:21.832Z,4.11
